ASA888 KLAX-PHNL
Flight info
| Callsign | ASA888 |
|---|---|
| Flight time | 5h 55m |
| Altitude | 30000 |
| Route | SUMMR2 DINTY DUETS R576 DADIE/N0451F320 R576 DENNS MAGGI3 |
| Aircraft | A21N/M-SDE2E3FGHIRWXY/LB1 |
Departure
| Time | 2026-04-23 16:32 |
|---|---|
| Airport | Los Angeles International Airport (KLAX) |
Arrival
| Time | 2026-04-23 22:27 |
|---|---|
| Airport | Daniel K. Inouye International Airport (PHNL) |
| Time | Latitude | Longitude | Altitude | Speed | Heading |
|---|---|---|---|---|---|
| 2026-04-23 15:25 | 33.94144 | -118.40271 | 98 ft | 0 kts | 86° |
| 2026-04-23 16:21 | 33.94143 | -118.40292 | 100 ft | 4 kts | 86° |
| 2026-04-23 16:22 | 33.94142 | -118.40317 | 98 ft | 4 kts | 107° |
| 2026-04-23 16:22 | 33.94156 | -118.40332 | 98 ft | 3 kts | 173° |
| 2026-04-23 16:22 | 33.94140 | -118.40330 | 100 ft | 4 kts | 173° |
| 2026-04-23 16:22 | 33.94113 | -118.40326 | 98 ft | 4 kts | 173° |
| 2026-04-23 16:23 | 33.94086 | -118.40322 | 98 ft | 4 kts | 173° |
| 2026-04-23 16:23 | 33.94059 | -118.40318 | 98 ft | 4 kts | 173° |
| 2026-04-23 16:23 | 33.94035 | -118.40314 | 100 ft | 1 kts | 173° |
| 2026-04-23 16:23 | 33.94034 | -118.40314 | 100 ft | 0 kts | 173° |
| 2026-04-23 16:26 | 33.94033 | -118.40314 | 98 ft | 1 kts | 173° |
| 2026-04-23 16:26 | 33.94015 | -118.40310 | 98 ft | 4 kts | 170° |
| 2026-04-23 16:27 | 33.93972 | -118.40302 | 99 ft | 8 kts | 170° |
| 2026-04-23 16:27 | 33.93901 | -118.40291 | 99 ft | 12 kts | 174° |
| 2026-04-23 16:27 | 33.93851 | -118.40268 | 101 ft | 5 kts | 101° |
| 2026-04-23 16:27 | 33.93857 | -118.40213 | 101 ft | 9 kts | 81° |
| 2026-04-23 16:28 | 33.93867 | -118.40124 | 101 ft | 13 kts | 83° |
| 2026-04-23 16:28 | 33.93880 | -118.39995 | 102 ft | 18 kts | 83° |
| 2026-04-23 16:28 | 33.93896 | -118.39829 | 101 ft | 22 kts | 83° |
| 2026-04-23 16:28 | 33.93916 | -118.39639 | 100 ft | 23 kts | 83° |
| 2026-04-23 16:29 | 33.93936 | -118.39446 | 100 ft | 23 kts | 83° |
| 2026-04-23 16:29 | 33.93955 | -118.39256 | 100 ft | 23 kts | 83° |
| 2026-04-23 16:29 | 33.93975 | -118.39062 | 99 ft | 23 kts | 83° |
| 2026-04-23 16:29 | 33.93994 | -118.38867 | 99 ft | 23 kts | 83° |
| 2026-04-23 16:30 | 33.94015 | -118.38671 | 102 ft | 24 kts | 83° |
| 2026-04-23 16:30 | 33.94033 | -118.38491 | 101 ft | 19 kts | 83° |
| 2026-04-23 16:30 | 33.94044 | -118.38385 | 101 ft | 12 kts | 83° |
| 2026-04-23 16:30 | 33.94025 | -118.38334 | 102 ft | 7 kts | 152° |
| 2026-04-23 16:31 | 33.93969 | -118.38324 | 103 ft | 8 kts | 183° |
| 2026-04-23 16:31 | 33.93946 | -118.38364 | 104 ft | 6 kts | 266° |
| 2026-04-23 16:31 | 33.93937 | -118.38477 | 105 ft | 34 kts | 263° |
| 2026-04-23 16:31 | 33.93880 | -118.39035 | 100 ft | 99 kts | 263° |
| 2026-04-23 16:32 | 33.93769 | -118.40112 | 104 ft | 158 kts | 263° |
| 2026-04-23 16:32 | 33.93619 | -118.41569 | 407 ft | 179 kts | 263° |
| 2026-04-23 16:32 | 33.93427 | -118.43047 | 1066 ft | 180 kts | 260° |
| 2026-04-23 16:32 | 33.93269 | -118.44555 | 1587 ft | 186 kts | 263° |
| 2026-04-23 16:33 | 33.93142 | -118.46165 | 1921 ft | 200 kts | 263° |
| 2026-04-23 16:33 | 33.93000 | -118.47885 | 2356 ft | 211 kts | 263° |
| 2026-04-23 16:33 | 33.92847 | -118.49671 | 2872 ft | 218 kts | 264° |
| 2026-04-23 16:33 | 33.92679 | -118.51555 | 3202 ft | 236 kts | 264° |
| 2026-04-23 16:34 | 33.92493 | -118.53597 | 3535 ft | 254 kts | 264° |
| 2026-04-23 16:34 | 33.92298 | -118.55762 | 4067 ft | 263 kts | 264° |
| 2026-04-23 16:34 | 33.92125 | -118.57966 | 4746 ft | 267 kts | 265° |
| 2026-04-23 16:34 | 33.91961 | -118.60216 | 5399 ft | 272 kts | 265° |
| 2026-04-23 16:35 | 33.91804 | -118.62495 | 6045 ft | 276 kts | 265° |
| 2026-04-23 16:35 | 33.91608 | -118.64818 | 6661 ft | 280 kts | 264° |
| 2026-04-23 16:35 | 33.91388 | -118.67149 | 7388 ft | 280 kts | 264° |
| 2026-04-23 16:35 | 33.91155 | -118.69469 | 8111 ft | 279 kts | 263° |
| 2026-04-23 16:36 | 33.90913 | -118.71805 | 8658 ft | 286 kts | 263° |
| 2026-04-23 16:36 | 33.90680 | -118.74210 | 9190 ft | 291 kts | 264° |
| 2026-04-23 16:36 | 33.90450 | -118.76636 | 9783 ft | 293 kts | 264° |
| 2026-04-23 16:36 | 33.90216 | -118.79095 | 10277 ft | 301 kts | 265° |
| 2026-04-23 16:37 | 33.89973 | -118.81656 | 10556 ft | 315 kts | 265° |
| 2026-04-23 16:37 | 33.89716 | -118.84346 | 10788 ft | 331 kts | 265° |
| 2026-04-23 16:37 | 33.89447 | -118.87141 | 11175 ft | 340 kts | 265° |
| 2026-04-23 16:37 | 33.89174 | -118.89973 | 11745 ft | 341 kts | 265° |
| 2026-04-23 16:38 | 33.88899 | -118.92809 | 12431 ft | 341 kts | 265° |
| 2026-04-23 16:38 | 33.88627 | -118.95638 | 13110 ft | 340 kts | 265° |
| 2026-04-23 16:38 | 33.88359 | -118.98432 | 13723 ft | 341 kts | 265° |
| 2026-04-23 16:38 | 33.88087 | -119.01267 | 14339 ft | 342 kts | 265° |
| 2026-04-23 16:39 | 33.87811 | -119.04120 | 14950 ft | 343 kts | 265° |
| 2026-04-23 16:39 | 33.87534 | -119.06979 | 15520 ft | 345 kts | 265° |
| 2026-04-23 16:39 | 33.87257 | -119.09850 | 16078 ft | 346 kts | 264° |
| 2026-04-23 16:39 | 33.86973 | -119.12730 | 16623 ft | 348 kts | 264° |
| 2026-04-23 16:40 | 33.86686 | -119.15622 | 17171 ft | 349 kts | 264° |
| 2026-04-23 16:40 | 33.86398 | -119.18524 | 17701 ft | 350 kts | 264° |
| 2026-04-23 16:40 | 33.86117 | -119.21434 | 18227 ft | 351 kts | 264° |
| 2026-04-23 16:40 | 33.85829 | -119.24356 | 18716 ft | 353 kts | 264° |
| 2026-04-23 16:41 | 33.85535 | -119.27298 | 19165 ft | 355 kts | 264° |
| 2026-04-23 16:41 | 33.85242 | -119.30258 | 19594 ft | 358 kts | 264° |
| 2026-04-23 16:41 | 33.84949 | -119.33240 | 20021 ft | 360 kts | 264° |
| 2026-04-23 16:41 | 33.84651 | -119.36243 | 20440 ft | 363 kts | 264° |
| 2026-04-23 16:42 | 33.84348 | -119.39264 | 20843 ft | 365 kts | 264° |
| 2026-04-23 16:42 | 33.84041 | -119.42314 | 21221 ft | 368 kts | 264° |
| 2026-04-23 16:42 | 33.83736 | -119.45382 | 21602 ft | 371 kts | 264° |
| 2026-04-23 16:42 | 33.83428 | -119.48473 | 21991 ft | 373 kts | 263° |
| 2026-04-23 16:43 | 33.83115 | -119.51585 | 22353 ft | 376 kts | 263° |
| 2026-04-23 16:43 | 33.82800 | -119.54712 | 22716 ft | 378 kts | 263° |
| 2026-04-23 16:43 | 33.82485 | -119.57855 | 23071 ft | 380 kts | 263° |
| 2026-04-23 16:43 | 33.82170 | -119.61025 | 23421 ft | 382 kts | 263° |
| 2026-04-23 16:44 | 33.81849 | -119.64207 | 23747 ft | 385 kts | 263° |
| 2026-04-23 16:44 | 33.81527 | -119.67410 | 24058 ft | 387 kts | 263° |
| 2026-04-23 16:44 | 33.81203 | -119.70633 | 24380 ft | 389 kts | 263° |
| 2026-04-23 16:44 | 33.80874 | -119.73872 | 24722 ft | 391 kts | 263° |
| 2026-04-23 16:45 | 33.80540 | -119.77122 | 25041 ft | 392 kts | 263° |
| 2026-04-23 16:45 | 33.80202 | -119.80382 | 25351 ft | 394 kts | 263° |
| 2026-04-23 16:45 | 33.79863 | -119.83654 | 25669 ft | 395 kts | 263° |
| 2026-04-23 16:45 | 33.79523 | -119.86937 | 25967 ft | 397 kts | 263° |
| 2026-04-23 16:46 | 33.79181 | -119.90237 | 26281 ft | 398 kts | 263° |
| 2026-04-23 16:46 | 33.78838 | -119.93543 | 26572 ft | 399 kts | 263° |
| 2026-04-23 16:46 | 33.78494 | -119.96820 | 26839 ft | 401 kts | 263° |
| 2026-04-23 16:46 | 33.78144 | -120.00151 | 27121 ft | 402 kts | 263° |
| 2026-04-23 16:47 | 33.77793 | -120.03491 | 27396 ft | 404 kts | 263° |
| 2026-04-23 16:47 | 33.77439 | -120.06848 | 27662 ft | 405 kts | 263° |
| 2026-04-23 16:47 | 33.77084 | -120.10211 | 27938 ft | 406 kts | 262° |
| 2026-04-23 16:47 | 33.76729 | -120.13581 | 28189 ft | 408 kts | 263° |
| 2026-04-23 16:48 | 33.76372 | -120.16966 | 28449 ft | 409 kts | 262° |
| 2026-04-23 16:48 | 33.76011 | -120.20359 | 28736 ft | 409 kts | 262° |
| 2026-04-23 16:48 | 33.75650 | -120.23748 | 29068 ft | 408 kts | 262° |
| 2026-04-23 16:48 | 33.75289 | -120.27123 | 29398 ft | 406 kts | 262° |
| 2026-04-23 16:49 | 33.75051 | -120.29351 | 29607 ft | 406 kts | 262° |
| 2026-04-23 16:49 | 33.74692 | -120.32703 | 29893 ft | 404 kts | 262° |
| 2026-04-23 16:49 | 33.74330 | -120.36053 | 30093 ft | 403 kts | 262° |
| 2026-04-23 16:49 | 33.73968 | -120.39389 | 30131 ft | 402 kts | 262° |
| 2026-04-23 16:50 | 33.73247 | -120.46046 | 30117 ft | 401 kts | 262° |
| 2026-04-23 16:50 | 33.72525 | -120.52694 | 30124 ft | 401 kts | 262° |
| 2026-04-23 16:51 | 33.71798 | -120.59336 | 30130 ft | 401 kts | 262° |
| 2026-04-23 16:51 | 33.71067 | -120.65983 | 30128 ft | 402 kts | 262° |
| 2026-04-23 16:52 | 33.70330 | -120.72648 | 30130 ft | 403 kts | 262° |
| 2026-04-23 16:52 | 33.69586 | -120.79326 | 30132 ft | 404 kts | 262° |
| 2026-04-23 16:53 | 33.68838 | -120.86001 | 30132 ft | 403 kts | 262° |
| 2026-04-23 16:53 | 33.68088 | -120.92684 | 30131 ft | 404 kts | 262° |
| 2026-04-23 16:54 | 33.67334 | -120.99376 | 30131 ft | 404 kts | 262° |
| 2026-04-23 16:54 | 33.66574 | -121.06064 | 30131 ft | 405 kts | 262° |
| 2026-04-23 16:55 | 33.65809 | -121.12768 | 30129 ft | 405 kts | 262° |
| 2026-04-23 16:55 | 33.65040 | -121.19480 | 30129 ft | 406 kts | 262° |
| 2026-04-23 16:56 | 33.64269 | -121.26197 | 30137 ft | 406 kts | 262° |
| 2026-04-23 16:56 | 33.63491 | -121.32925 | 30140 ft | 407 kts | 262° |
| 2026-04-23 16:57 | 33.62708 | -121.39660 | 30139 ft | 408 kts | 262° |
| 2026-04-23 16:57 | 33.61923 | -121.46404 | 30141 ft | 408 kts | 262° |
| 2026-04-23 16:58 | 33.61129 | -121.53155 | 30140 ft | 409 kts | 262° |
| 2026-04-23 16:58 | 33.60331 | -121.59913 | 30140 ft | 409 kts | 262° |
| 2026-04-23 16:59 | 33.59523 | -121.66681 | 30141 ft | 410 kts | 262° |
| 2026-04-23 16:59 | 33.58723 | -121.73450 | 30140 ft | 410 kts | 262° |
| 2026-04-23 17:00 | 33.57913 | -121.80222 | 30141 ft | 410 kts | 262° |
| 2026-04-23 17:00 | 33.57103 | -121.86956 | 30141 ft | 411 kts | 262° |
| 2026-04-23 17:01 | 33.56285 | -121.93743 | 30141 ft | 411 kts | 261° |
| 2026-04-23 17:01 | 33.55462 | -122.00526 | 30140 ft | 411 kts | 262° |
| 2026-04-23 17:02 | 33.54631 | -122.07304 | 30133 ft | 411 kts | 261° |
| 2026-04-23 17:02 | 33.53799 | -122.14084 | 30130 ft | 411 kts | 261° |
| 2026-04-23 17:03 | 33.52961 | -122.20864 | 30140 ft | 411 kts | 261° |
| 2026-04-23 17:03 | 33.52122 | -122.27639 | 30140 ft | 410 kts | 261° |
| 2026-04-23 17:04 | 33.51287 | -122.34394 | 30138 ft | 410 kts | 261° |
| 2026-04-23 17:04 | 33.50446 | -122.41153 | 30140 ft | 410 kts | 261° |
| 2026-04-23 17:05 | 33.49603 | -122.47903 | 30141 ft | 409 kts | 261° |
| 2026-04-23 17:05 | 33.48760 | -122.54644 | 30134 ft | 409 kts | 261° |
| 2026-04-23 17:06 | 33.47698 | -122.61328 | 30131 ft | 408 kts | 256° |
| 2026-04-23 17:06 | 33.46338 | -122.67932 | 30132 ft | 408 kts | 256° |
| 2026-04-23 17:07 | 33.44975 | -122.74526 | 30132 ft | 408 kts | 256° |
| 2026-04-23 17:07 | 33.43614 | -122.81108 | 30130 ft | 407 kts | 256° |
| 2026-04-23 17:08 | 33.42252 | -122.87689 | 30129 ft | 407 kts | 256° |
| 2026-04-23 17:08 | 33.40884 | -122.94268 | 30129 ft | 407 kts | 256° |
| 2026-04-23 17:09 | 33.39516 | -123.00834 | 30130 ft | 406 kts | 256° |
| 2026-04-23 17:09 | 33.38143 | -123.07394 | 30128 ft | 406 kts | 256° |
| 2026-04-23 17:10 | 33.36769 | -123.13946 | 30129 ft | 406 kts | 256° |
| 2026-04-23 17:10 | 33.35393 | -123.20502 | 30129 ft | 406 kts | 256° |
| 2026-04-23 17:11 | 33.34012 | -123.27056 | 30129 ft | 406 kts | 256° |
| 2026-04-23 17:11 | 33.32635 | -123.33558 | 30128 ft | 406 kts | 256° |
| 2026-04-23 17:12 | 33.31247 | -123.40108 | 30128 ft | 406 kts | 256° |
| 2026-04-23 17:12 | 33.29857 | -123.46650 | 30129 ft | 406 kts | 256° |
| 2026-04-23 17:13 | 33.28465 | -123.53180 | 30129 ft | 406 kts | 256° |
| 2026-04-23 17:13 | 33.27068 | -123.59710 | 30137 ft | 405 kts | 256° |
| 2026-04-23 17:14 | 33.25670 | -123.66238 | 30140 ft | 406 kts | 256° |
| 2026-04-23 17:14 | 33.24267 | -123.72770 | 30140 ft | 406 kts | 256° |
| 2026-04-23 17:15 | 33.22861 | -123.79284 | 30140 ft | 405 kts | 256° |
| 2026-04-23 17:15 | 33.21456 | -123.85792 | 30140 ft | 405 kts | 256° |
| 2026-04-23 17:16 | 33.20049 | -123.92292 | 30141 ft | 404 kts | 256° |
| 2026-04-23 17:16 | 33.18635 | -123.98797 | 30142 ft | 405 kts | 256° |
| 2026-04-23 17:17 | 33.17219 | -124.05296 | 30150 ft | 405 kts | 255° |
| 2026-04-23 17:17 | 33.15794 | -124.11809 | 30152 ft | 405 kts | 255° |
| 2026-04-23 17:18 | 33.13670 | -124.21512 | 30142 ft | 405 kts | 255° |
| 2026-04-23 17:19 | 33.12241 | -124.28007 | 30140 ft | 405 kts | 255° |
| 2026-04-23 17:19 | 33.10808 | -124.34502 | 30139 ft | 405 kts | 255° |
| 2026-04-23 17:20 | 33.09373 | -124.40992 | 30140 ft | 405 kts | 255° |
| 2026-04-23 17:21 | 33.06491 | -124.53974 | 30130 ft | 405 kts | 255° |
| 2026-04-23 17:21 | 33.04310 | -124.63724 | 30129 ft | 406 kts | 255° |
| 2026-04-23 17:22 | 33.02119 | -124.73485 | 30132 ft | 406 kts | 255° |
| 2026-04-23 17:23 | 32.99924 | -124.83239 | 30131 ft | 406 kts | 255° |
| 2026-04-23 17:24 | 32.97710 | -124.92983 | 30128 ft | 406 kts | 255° |
| 2026-04-23 17:24 | 32.95481 | -125.02735 | 30130 ft | 407 kts | 255° |
| 2026-04-23 17:25 | 32.93255 | -125.12504 | 30131 ft | 407 kts | 255° |
| 2026-04-23 17:26 | 32.90276 | -125.25475 | 30132 ft | 408 kts | 254° |
| 2026-04-23 17:27 | 32.88031 | -125.35246 | 30177 ft | 408 kts | 255° |
| 2026-04-23 17:27 | 32.86528 | -125.41762 | 30179 ft | 408 kts | 254° |
| 2026-04-23 17:28 | 32.85021 | -125.48281 | 30180 ft | 409 kts | 255° |
| 2026-04-23 17:28 | 32.83507 | -125.54804 | 30180 ft | 409 kts | 254° |
| 2026-04-23 17:29 | 32.81990 | -125.61329 | 30177 ft | 410 kts | 254° |
| 2026-04-23 17:30 | 32.79952 | -125.70070 | 30170 ft | 410 kts | 254° |
| 2026-04-23 17:30 | 32.77408 | -125.80924 | 30170 ft | 411 kts | 254° |
| 2026-04-23 17:31 | 32.75865 | -125.87464 | 30170 ft | 411 kts | 254° |
| 2026-04-23 17:31 | 32.74325 | -125.94002 | 30170 ft | 411 kts | 254° |
| 2026-04-23 17:32 | 32.72781 | -126.00540 | 30170 ft | 411 kts | 254° |
| 2026-04-23 17:32 | 32.71243 | -126.07098 | 30170 ft | 413 kts | 254° |
| 2026-04-23 17:33 | 32.69685 | -126.13661 | 30171 ft | 413 kts | 254° |
| 2026-04-23 17:33 | 32.68128 | -126.20224 | 30170 ft | 413 kts | 254° |
| 2026-04-23 17:34 | 32.66565 | -126.26785 | 30170 ft | 413 kts | 254° |
| 2026-04-23 17:35 | 32.64202 | -126.36619 | 30170 ft | 413 kts | 253° |
| 2026-04-23 17:35 | 32.61846 | -126.46451 | 30170 ft | 413 kts | 254° |
| 2026-04-23 17:36 | 32.60536 | -126.51900 | 30170 ft | 413 kts | 253° |
| 2026-04-23 17:36 | 32.58952 | -126.58448 | 30171 ft | 413 kts | 253° |
| 2026-04-23 17:37 | 32.57362 | -126.64987 | 30171 ft | 413 kts | 254° |
| 2026-04-23 17:38 | 32.54975 | -126.74802 | 30170 ft | 413 kts | 253° |
| 2026-04-23 17:38 | 32.53383 | -126.81339 | 30170 ft | 413 kts | 254° |
| 2026-04-23 17:39 | 32.51789 | -126.87877 | 30170 ft | 413 kts | 253° |
| 2026-04-23 17:39 | 32.50188 | -126.94410 | 30171 ft | 413 kts | 253° |
| 2026-04-23 17:40 | 32.48582 | -127.00943 | 30170 ft | 413 kts | 253° |
| 2026-04-23 17:40 | 32.46958 | -127.07464 | 30170 ft | 413 kts | 253° |
| 2026-04-23 17:41 | 32.45337 | -127.13986 | 30170 ft | 413 kts | 253° |
| 2026-04-23 17:41 | 32.42915 | -127.23771 | 30170 ft | 413 kts | 253° |
| 2026-04-23 17:42 | 32.40503 | -127.33557 | 30170 ft | 413 kts | 253° |
| 2026-04-23 17:43 | 32.38880 | -127.40072 | 30171 ft | 413 kts | 253° |
| 2026-04-23 17:43 | 32.37262 | -127.46580 | 30170 ft | 412 kts | 253° |
| 2026-04-23 17:44 | 32.35654 | -127.53085 | 30171 ft | 412 kts | 253° |
| 2026-04-23 17:44 | 32.33211 | -127.62830 | 30170 ft | 412 kts | 253° |
| 2026-04-23 17:45 | 32.30757 | -127.72519 | 30170 ft | 412 kts | 253° |
| 2026-04-23 17:46 | 32.28299 | -127.82243 | 30170 ft | 411 kts | 253° |
| 2026-04-23 17:46 | 32.26657 | -127.88710 | 30170 ft | 411 kts | 253° |
| 2026-04-23 17:47 | 32.25014 | -127.95179 | 30170 ft | 411 kts | 253° |
| 2026-04-23 17:48 | 32.22537 | -128.04876 | 30170 ft | 411 kts | 253° |
| 2026-04-23 17:48 | 32.20889 | -128.11337 | 30171 ft | 411 kts | 253° |
| 2026-04-23 17:49 | 32.19234 | -128.17795 | 30179 ft | 411 kts | 253° |
| 2026-04-23 17:49 | 32.17577 | -128.24248 | 30188 ft | 411 kts | 253° |
| 2026-04-23 17:50 | 32.15914 | -128.30712 | 30190 ft | 412 kts | 253° |
| 2026-04-23 17:50 | 32.13408 | -128.40410 | 30190 ft | 412 kts | 252° |
| 2026-04-23 17:51 | 32.11734 | -128.46871 | 30190 ft | 411 kts | 252° |
| 2026-04-23 17:52 | 32.09220 | -128.56544 | 30190 ft | 411 kts | 252° |
| 2026-04-23 17:52 | 32.06702 | -128.66235 | 30216 ft | 412 kts | 252° |
| 2026-04-23 17:53 | 32.05015 | -128.72707 | 30732 ft | 412 kts | 252° |
| 2026-04-23 17:53 | 32.04170 | -128.75925 | 31009 ft | 411 kts | 252° |
| 2026-04-23 17:53 | 32.03327 | -128.79142 | 31267 ft | 410 kts | 252° |
| 2026-04-23 17:54 | 32.02480 | -128.82359 | 31464 ft | 411 kts | 252° |
| 2026-04-23 17:54 | 32.01626 | -128.85579 | 31661 ft | 412 kts | 251° |
| 2026-04-23 17:54 | 31.99912 | -128.92018 | 32069 ft | 412 kts | 252° |
| 2026-04-23 17:55 | 31.98215 | -128.98450 | 32225 ft | 411 kts | 251° |
| 2026-04-23 17:55 | 31.97367 | -129.01660 | 32202 ft | 411 kts | 251° |
| 2026-04-23 17:56 | 31.95676 | -129.08083 | 32192 ft | 411 kts | 251° |
| 2026-04-23 17:56 | 31.93114 | -129.17712 | 32191 ft | 411 kts | 251° |
| 2026-04-23 17:57 | 31.91423 | -129.24143 | 32189 ft | 411 kts | 251° |
| 2026-04-23 17:58 | 31.88868 | -129.33735 | 32188 ft | 411 kts | 251° |
| 2026-04-23 17:58 | 31.87149 | -129.40151 | 32186 ft | 411 kts | 251° |
| 2026-04-23 17:59 | 31.85426 | -129.46571 | 32191 ft | 411 kts | 251° |
| 2026-04-23 17:59 | 31.83699 | -129.52987 | 32191 ft | 411 kts | 251° |
| 2026-04-23 18:00 | 31.81968 | -129.59397 | 32194 ft | 411 kts | 251° |
| 2026-04-23 18:00 | 31.80236 | -129.65809 | 32194 ft | 412 kts | 251° |
| 2026-04-23 18:01 | 31.78502 | -129.72223 | 32190 ft | 412 kts | 251° |
| 2026-04-23 18:01 | 31.76755 | -129.78633 | 32193 ft | 412 kts | 250° |
| 2026-04-23 18:02 | 31.75302 | -129.83966 | 32190 ft | 413 kts | 250° |
| 2026-04-23 18:02 | 31.73253 | -129.91472 | 32191 ft | 412 kts | 251° |
| 2026-04-23 18:03 | 31.71519 | -129.97829 | 32188 ft | 407 kts | 251° |
| 2026-04-23 18:03 | 31.69786 | -130.04160 | 32192 ft | 407 kts | 251° |
| 2026-04-23 18:04 | 31.68046 | -130.10490 | 32192 ft | 407 kts | 251° |
| 2026-04-23 18:04 | 31.66309 | -130.16818 | 32194 ft | 407 kts | 251° |
| 2026-04-23 18:05 | 31.64575 | -130.23130 | 32191 ft | 406 kts | 251° |
| 2026-04-23 18:05 | 31.62844 | -130.29425 | 32190 ft | 406 kts | 251° |
| 2026-04-23 18:06 | 31.61102 | -130.35715 | 32190 ft | 405 kts | 251° |
| 2026-04-23 18:06 | 31.59373 | -130.41947 | 32194 ft | 405 kts | 251° |
| 2026-04-23 18:07 | 31.57630 | -130.48223 | 32191 ft | 404 kts | 251° |
| 2026-04-23 18:07 | 31.55885 | -130.54484 | 32187 ft | 404 kts | 251° |
| 2026-04-23 18:08 | 31.54422 | -130.59722 | 32188 ft | 403 kts | 251° |
| 2026-04-23 18:08 | 31.52393 | -130.66988 | 32191 ft | 403 kts | 251° |
| 2026-04-23 18:09 | 31.50647 | -130.73213 | 32191 ft | 402 kts | 251° |
| 2026-04-23 18:09 | 31.48897 | -130.79441 | 32192 ft | 402 kts | 251° |
| 2026-04-23 18:10 | 31.47148 | -130.85654 | 32189 ft | 402 kts | 251° |
| 2026-04-23 18:10 | 31.45396 | -130.91863 | 32191 ft | 401 kts | 251° |
| 2026-04-23 18:11 | 31.43646 | -130.98061 | 32188 ft | 401 kts | 251° |
| 2026-04-23 18:11 | 31.41893 | -131.04253 | 32188 ft | 400 kts | 251° |
| 2026-04-23 18:12 | 31.40139 | -131.10438 | 32193 ft | 400 kts | 251° |
| 2026-04-23 18:12 | 31.38376 | -131.16624 | 32193 ft | 400 kts | 251° |
| 2026-04-23 18:13 | 31.36618 | -131.22801 | 32189 ft | 400 kts | 251° |
| 2026-04-23 18:13 | 31.34866 | -131.28934 | 32192 ft | 400 kts | 251° |
| 2026-04-23 18:14 | 31.33099 | -131.35105 | 32189 ft | 400 kts | 250° |
| 2026-04-23 18:14 | 31.31332 | -131.41268 | 32190 ft | 400 kts | 250° |
| 2026-04-23 18:15 | 31.29562 | -131.47426 | 32187 ft | 399 kts | 250° |
| 2026-04-23 18:15 | 31.27789 | -131.53571 | 32189 ft | 399 kts | 251° |
| 2026-04-23 18:16 | 31.26020 | -131.59706 | 32197 ft | 398 kts | 250° |
| 2026-04-23 18:16 | 31.24245 | -131.65847 | 32200 ft | 399 kts | 250° |
| 2026-04-23 18:17 | 31.21582 | -131.75045 | 32197 ft | 398 kts | 250° |
| 2026-04-23 18:17 | 31.19804 | -131.81165 | 32202 ft | 398 kts | 250° |
| 2026-04-23 18:18 | 31.18022 | -131.87279 | 32204 ft | 397 kts | 250° |
| 2026-04-23 18:18 | 31.16243 | -131.93380 | 32201 ft | 397 kts | 250° |
| 2026-04-23 18:19 | 31.14458 | -131.99476 | 32201 ft | 397 kts | 250° |
| 2026-04-23 18:19 | 31.12681 | -132.05563 | 32200 ft | 395 kts | 250° |
| 2026-04-23 18:20 | 31.10901 | -132.11620 | 32203 ft | 395 kts | 250° |
| 2026-04-23 18:20 | 31.09123 | -132.17671 | 32194 ft | 394 kts | 251° |
| 2026-04-23 18:21 | 31.07339 | -132.23719 | 32195 ft | 394 kts | 251° |
| 2026-04-23 18:21 | 31.05548 | -132.29775 | 32188 ft | 395 kts | 251° |
| 2026-04-23 18:22 | 31.03762 | -132.35812 | 32190 ft | 394 kts | 251° |
| 2026-04-23 18:22 | 31.02274 | -132.40824 | 32186 ft | 394 kts | 251° |
| 2026-04-23 18:23 | 30.99588 | -132.49861 | 32191 ft | 393 kts | 250° |
| 2026-04-23 18:24 | 30.96610 | -132.59861 | 32190 ft | 393 kts | 250° |
| 2026-04-23 18:25 | 30.94207 | -132.67894 | 32191 ft | 392 kts | 250° |
| 2026-04-23 18:25 | 30.92411 | -132.73885 | 32199 ft | 392 kts | 250° |
| 2026-04-23 18:26 | 30.90612 | -132.79879 | 32203 ft | 392 kts | 250° |
| 2026-04-23 18:26 | 30.88827 | -132.85814 | 32199 ft | 391 kts | 250° |
| 2026-04-23 18:27 | 30.87026 | -132.91789 | 32200 ft | 391 kts | 250° |
| 2026-04-23 18:27 | 30.85227 | -132.97757 | 32200 ft | 390 kts | 250° |
| 2026-04-23 18:28 | 30.83421 | -133.03707 | 32200 ft | 390 kts | 250° |
| 2026-04-23 18:28 | 30.81620 | -133.09665 | 32197 ft | 390 kts | 250° |
| 2026-04-23 18:29 | 30.79816 | -133.15609 | 32203 ft | 389 kts | 250° |
| 2026-04-23 18:29 | 30.78011 | -133.21543 | 32205 ft | 389 kts | 250° |
| 2026-04-23 18:30 | 30.76203 | -133.27477 | 32200 ft | 389 kts | 250° |
| 2026-04-23 18:30 | 30.74393 | -133.33401 | 32203 ft | 389 kts | 250° |
| 2026-04-23 18:31 | 30.72582 | -133.39323 | 32199 ft | 388 kts | 250° |
| 2026-04-23 18:31 | 30.70770 | -133.45239 | 32199 ft | 388 kts | 250° |
| 2026-04-23 18:32 | 30.68941 | -133.51196 | 32199 ft | 388 kts | 250° |
| 2026-04-23 18:32 | 30.67139 | -133.57048 | 32198 ft | 387 kts | 250° |
| 2026-04-23 18:33 | 30.65319 | -133.62938 | 32201 ft | 387 kts | 250° |
| 2026-04-23 18:33 | 30.63500 | -133.68822 | 32201 ft | 387 kts | 250° |
| 2026-04-23 18:34 | 30.61683 | -133.74703 | 32202 ft | 386 kts | 250° |
| 2026-04-23 18:34 | 30.59862 | -133.80575 | 32199 ft | 386 kts | 250° |
| 2026-04-23 18:35 | 30.58039 | -133.86441 | 32203 ft | 387 kts | 250° |
| 2026-04-23 18:35 | 30.56225 | -133.92271 | 32201 ft | 387 kts | 250° |
| 2026-04-23 18:36 | 30.54399 | -133.98134 | 32199 ft | 386 kts | 250° |
| 2026-04-23 18:36 | 30.52576 | -134.03992 | 32203 ft | 386 kts | 250° |
| 2026-04-23 18:37 | 30.50745 | -134.09840 | 32202 ft | 386 kts | 250° |
| 2026-04-23 18:37 | 30.48906 | -134.15684 | 32212 ft | 386 kts | 250° |
| 2026-04-23 18:38 | 30.47074 | -134.21526 | 32212 ft | 386 kts | 250° |
| 2026-04-23 18:38 | 30.45241 | -134.27370 | 32209 ft | 386 kts | 250° |
| 2026-04-23 18:39 | 30.43402 | -134.33209 | 32213 ft | 386 kts | 250° |
| 2026-04-23 18:39 | 30.41564 | -134.39052 | 32208 ft | 386 kts | 250° |
| 2026-04-23 18:40 | 30.39722 | -134.44883 | 32216 ft | 386 kts | 250° |
| 2026-04-23 18:40 | 30.37874 | -134.50716 | 32212 ft | 386 kts | 250° |
| 2026-04-23 18:41 | 30.36022 | -134.56549 | 32206 ft | 386 kts | 250° |
| 2026-04-23 18:41 | 30.34165 | -134.62384 | 32207 ft | 387 kts | 250° |
| 2026-04-23 18:42 | 30.32305 | -134.68223 | 32212 ft | 387 kts | 250° |
| 2026-04-23 18:42 | 30.30455 | -134.74028 | 32210 ft | 387 kts | 250° |
| 2026-04-23 18:43 | 30.28584 | -134.79865 | 32209 ft | 387 kts | 250° |
| 2026-04-23 18:43 | 30.26714 | -134.85702 | 32208 ft | 387 kts | 250° |
| 2026-04-23 18:44 | 30.24837 | -134.91539 | 32210 ft | 388 kts | 250° |
| 2026-04-23 18:44 | 30.22960 | -134.97385 | 32207 ft | 388 kts | 250° |
| 2026-04-23 18:45 | 30.21076 | -135.03224 | 32210 ft | 388 kts | 250° |
| 2026-04-23 18:45 | 30.19191 | -135.09069 | 32211 ft | 388 kts | 250° |
| 2026-04-23 18:46 | 30.17309 | -135.14911 | 32213 ft | 388 kts | 250° |
| 2026-04-23 18:46 | 30.15425 | -135.20751 | 32213 ft | 388 kts | 250° |
| 2026-04-23 18:47 | 30.13535 | -135.26590 | 32209 ft | 388 kts | 250° |
| 2026-04-23 18:47 | 30.11634 | -135.32418 | 32208 ft | 388 kts | 250° |
| 2026-04-23 18:48 | 30.09737 | -135.38256 | 32215 ft | 388 kts | 250° |
| 2026-04-23 18:48 | 30.07839 | -135.44083 | 32213 ft | 388 kts | 250° |
| 2026-04-23 18:49 | 30.05942 | -135.49915 | 32204 ft | 388 kts | 250° |
| 2026-04-23 18:49 | 30.04047 | -135.55706 | 32201 ft | 388 kts | 250° |
| 2026-04-23 18:50 | 30.02457 | -135.60586 | 32201 ft | 388 kts | 250° |
| 2026-04-23 18:50 | 30.00233 | -135.67353 | 32202 ft | 388 kts | 250° |
| 2026-04-23 18:51 | 29.98316 | -135.73172 | 32203 ft | 388 kts | 250° |
| 2026-04-23 18:51 | 29.96402 | -135.78997 | 32205 ft | 388 kts | 250° |
| 2026-04-23 18:52 | 29.94494 | -135.84813 | 32200 ft | 388 kts | 250° |
| 2026-04-23 18:52 | 29.92580 | -135.90635 | 32198 ft | 388 kts | 250° |
| 2026-04-23 18:53 | 29.90662 | -135.96451 | 32200 ft | 388 kts | 250° |
| 2026-04-23 18:53 | 29.88741 | -136.02253 | 32200 ft | 388 kts | 250° |
| 2026-04-23 18:54 | 29.86812 | -136.08055 | 32199 ft | 388 kts | 250° |
| 2026-04-23 18:54 | 29.84885 | -136.13850 | 32200 ft | 388 kts | 250° |
| 2026-04-23 18:55 | 29.82956 | -136.19647 | 32198 ft | 388 kts | 250° |
| 2026-04-23 18:55 | 29.81023 | -136.25445 | 32202 ft | 388 kts | 250° |
| 2026-04-23 18:56 | 29.79414 | -136.30260 | 32204 ft | 388 kts | 250° |
| 2026-04-23 18:56 | 29.77145 | -136.37041 | 32204 ft | 389 kts | 250° |
| 2026-04-23 18:57 | 29.75209 | -136.42807 | 32202 ft | 389 kts | 249° |
| 2026-04-23 18:57 | 29.73263 | -136.48606 | 32198 ft | 389 kts | 249° |
| 2026-04-23 18:58 | 29.71310 | -136.54409 | 32200 ft | 389 kts | 249° |
| 2026-04-23 18:58 | 29.69351 | -136.60218 | 32202 ft | 390 kts | 250° |
| 2026-04-23 18:59 | 29.67385 | -136.66033 | 32200 ft | 390 kts | 250° |
| 2026-04-23 18:59 | 29.65419 | -136.71838 | 32199 ft | 390 kts | 249° |
| 2026-04-23 19:00 | 29.63447 | -136.77650 | 32200 ft | 391 kts | 250° |
| 2026-04-23 19:00 | 29.61476 | -136.83475 | 32202 ft | 391 kts | 249° |
| 2026-04-23 19:01 | 29.59500 | -136.89297 | 32198 ft | 391 kts | 250° |
| 2026-04-23 19:01 | 29.57514 | -136.95116 | 32201 ft | 391 kts | 249° |
| 2026-04-23 19:02 | 29.55865 | -136.99947 | 32203 ft | 391 kts | 250° |
| 2026-04-23 19:02 | 29.53546 | -137.06746 | 32192 ft | 392 kts | 250° |
| 2026-04-23 19:03 | 29.51571 | -137.12536 | 32192 ft | 392 kts | 250° |
| 2026-04-23 19:03 | 29.49563 | -137.18394 | 32190 ft | 392 kts | 250° |
| 2026-04-23 19:04 | 29.47564 | -137.24209 | 32188 ft | 392 kts | 249° |
| 2026-04-23 19:04 | 29.45577 | -137.29980 | 32191 ft | 392 kts | 249° |
| 2026-04-23 19:05 | 29.43574 | -137.35792 | 32193 ft | 392 kts | 249° |
| 2026-04-23 19:05 | 29.41571 | -137.41600 | 32185 ft | 392 kts | 249° |
| 2026-04-23 19:06 | 29.39565 | -137.47407 | 32192 ft | 392 kts | 249° |
| 2026-04-23 19:06 | 29.37558 | -137.53211 | 32193 ft | 392 kts | 249° |
| 2026-04-23 19:07 | 29.35547 | -137.59015 | 32191 ft | 392 kts | 249° |
| 2026-04-23 19:07 | 29.33528 | -137.64831 | 32192 ft | 393 kts | 249° |
| 2026-04-23 19:08 | 29.31504 | -137.70645 | 32189 ft | 393 kts | 249° |
| 2026-04-23 19:08 | 29.29480 | -137.76454 | 32192 ft | 393 kts | 249° |
| 2026-04-23 19:09 | 29.27453 | -137.82264 | 32192 ft | 393 kts | 249° |
| 2026-04-23 19:09 | 29.25424 | -137.88070 | 32190 ft | 393 kts | 249° |
| 2026-04-23 19:10 | 29.23392 | -137.93873 | 32188 ft | 393 kts | 249° |
| 2026-04-23 19:10 | 29.21357 | -137.99677 | 32188 ft | 393 kts | 249° |
| 2026-04-23 19:11 | 29.19319 | -138.05481 | 32192 ft | 393 kts | 249° |
| 2026-04-23 19:11 | 29.17278 | -138.11286 | 32188 ft | 393 kts | 249° |
| 2026-04-23 19:12 | 29.15581 | -138.16109 | 32188 ft | 393 kts | 249° |
| 2026-04-23 19:12 | 29.13201 | -138.22856 | 32190 ft | 393 kts | 249° |
| 2026-04-23 19:13 | 29.11149 | -138.28658 | 32192 ft | 393 kts | 249° |
| 2026-04-23 19:13 | 29.09097 | -138.34453 | 32190 ft | 393 kts | 249° |
| 2026-04-23 19:14 | 29.07039 | -138.40251 | 32189 ft | 393 kts | 249° |
| 2026-04-23 19:14 | 29.05314 | -138.45106 | 32192 ft | 394 kts | 249° |
| 2026-04-23 19:15 | 29.03247 | -138.50913 | 32193 ft | 394 kts | 249° |
| 2026-04-23 19:15 | 29.01179 | -138.56718 | 32192 ft | 395 kts | 249° |
| 2026-04-23 19:16 | 28.99110 | -138.62525 | 32190 ft | 395 kts | 249° |
| 2026-04-23 19:16 | 28.97032 | -138.68334 | 32194 ft | 395 kts | 249° |
| 2026-04-23 19:17 | 28.93915 | -138.77032 | 32191 ft | 394 kts | 249° |
| 2026-04-23 19:17 | 28.91850 | -138.82785 | 32187 ft | 394 kts | 249° |
| 2026-04-23 19:18 | 28.89770 | -138.88573 | 32191 ft | 394 kts | 249° |
| 2026-04-23 19:18 | 28.87689 | -138.94356 | 32190 ft | 394 kts | 249° |
| 2026-04-23 19:19 | 28.84558 | -139.03032 | 32196 ft | 394 kts | 249° |
| 2026-04-23 19:20 | 28.81425 | -139.11698 | 32197 ft | 394 kts | 249° |
| 2026-04-23 19:20 | 28.79331 | -139.17474 | 32200 ft | 394 kts | 249° |
| 2026-04-23 19:21 | 28.76187 | -139.26134 | 32200 ft | 394 kts | 249° |
| 2026-04-23 19:22 | 28.74087 | -139.31907 | 32200 ft | 394 kts | 249° |
| 2026-04-23 19:22 | 28.70930 | -139.40572 | 32203 ft | 395 kts | 249° |
| 2026-04-23 19:23 | 28.68818 | -139.46348 | 32202 ft | 395 kts | 249° |
| 2026-04-23 19:24 | 28.65642 | -139.54995 | 32198 ft | 395 kts | 249° |
| 2026-04-23 19:24 | 28.62456 | -139.63653 | 32196 ft | 395 kts | 249° |
| 2026-04-23 19:25 | 28.58212 | -139.75161 | 32184 ft | 396 kts | 249° |
| 2026-04-23 19:26 | 28.55012 | -139.83807 | 32180 ft | 395 kts | 249° |
| 2026-04-23 19:27 | 28.49665 | -139.98227 | 32180 ft | 396 kts | 248° |
| 2026-04-23 19:28 | 28.45361 | -140.09784 | 32181 ft | 397 kts | 248° |
| 2026-04-23 19:29 | 28.42125 | -140.18449 | 32180 ft | 397 kts | 248° |
| 2026-04-23 19:30 | 28.38884 | -140.27118 | 32181 ft | 397 kts | 248° |
| 2026-04-23 19:31 | 28.35638 | -140.35776 | 32180 ft | 397 kts | 248° |
| 2026-04-23 19:31 | 28.33468 | -140.41545 | 32181 ft | 397 kts | 248° |
| 2026-04-23 19:32 | 28.31298 | -140.47311 | 32180 ft | 398 kts | 248° |
| 2026-04-23 19:32 | 28.29121 | -140.53089 | 32178 ft | 398 kts | 248° |
| 2026-04-23 19:33 | 28.26944 | -140.58859 | 32180 ft | 398 kts | 248° |
| 2026-04-23 19:33 | 28.23670 | -140.67514 | 32182 ft | 398 kts | 248° |
| 2026-04-23 19:34 | 28.21484 | -140.73284 | 32180 ft | 398 kts | 248° |
| 2026-04-23 19:35 | 28.18199 | -140.81943 | 32154 ft | 399 kts | 248° |
| 2026-04-23 19:35 | 28.16000 | -140.87721 | 32151 ft | 399 kts | 248° |
| 2026-04-23 19:36 | 28.13798 | -140.93501 | 32150 ft | 399 kts | 248° |
| 2026-04-23 19:36 | 28.11606 | -140.99247 | 32148 ft | 400 kts | 248° |
| 2026-04-23 19:37 | 28.09393 | -141.05038 | 32149 ft | 401 kts | 248° |
| 2026-04-23 19:37 | 28.07178 | -141.10835 | 32150 ft | 402 kts | 248° |
| 2026-04-23 19:38 | 28.04953 | -141.16635 | 32149 ft | 402 kts | 248° |
| 2026-04-23 19:38 | 28.02723 | -141.22441 | 32150 ft | 403 kts | 248° |
| 2026-04-23 19:39 | 28.00487 | -141.28257 | 32152 ft | 404 kts | 248° |
| 2026-04-23 19:39 | 27.98242 | -141.34087 | 32150 ft | 405 kts | 248° |
| 2026-04-23 19:40 | 27.95991 | -141.39931 | 32147 ft | 406 kts | 248° |
| 2026-04-23 19:40 | 27.93730 | -141.45786 | 32148 ft | 406 kts | 248° |
| 2026-04-23 19:41 | 27.91471 | -141.51642 | 32149 ft | 407 kts | 248° |
| 2026-04-23 19:41 | 27.89196 | -141.57504 | 32149 ft | 407 kts | 248° |
| 2026-04-23 19:42 | 27.86922 | -141.63367 | 32155 ft | 407 kts | 248° |
| 2026-04-23 19:42 | 27.84645 | -141.69224 | 32150 ft | 407 kts | 248° |
| 2026-04-23 19:43 | 27.82363 | -141.75089 | 32154 ft | 408 kts | 248° |
| 2026-04-23 19:43 | 27.80077 | -141.80957 | 32149 ft | 408 kts | 248° |
| 2026-04-23 19:44 | 27.77790 | -141.86820 | 32149 ft | 408 kts | 248° |
| 2026-04-23 19:44 | 27.75496 | -141.92683 | 32149 ft | 408 kts | 248° |
| 2026-04-23 19:45 | 27.73202 | -141.98545 | 32151 ft | 408 kts | 248° |
| 2026-04-23 19:45 | 27.70906 | -142.04402 | 32150 ft | 408 kts | 248° |
| 2026-04-23 19:46 | 27.68606 | -142.10258 | 32155 ft | 408 kts | 248° |
| 2026-04-23 19:46 | 27.66303 | -142.16117 | 32162 ft | 408 kts | 248° |
| 2026-04-23 19:47 | 27.64389 | -142.20978 | 32160 ft | 408 kts | 248° |
| 2026-04-23 19:47 | 27.61712 | -142.27771 | 32161 ft | 407 kts | 248° |
| 2026-04-23 19:48 | 27.59407 | -142.33606 | 32161 ft | 408 kts | 248° |
| 2026-04-23 19:48 | 27.57098 | -142.39441 | 32160 ft | 408 kts | 248° |
| 2026-04-23 19:49 | 27.54785 | -142.45277 | 32162 ft | 407 kts | 248° |
| 2026-04-23 19:49 | 27.52475 | -142.51106 | 32160 ft | 407 kts | 247° |
| 2026-04-23 19:50 | 27.50155 | -142.56947 | 32161 ft | 408 kts | 248° |
| 2026-04-23 19:50 | 27.47838 | -142.62761 | 32157 ft | 409 kts | 248° |
| 2026-04-23 19:51 | 27.45518 | -142.68574 | 32163 ft | 406 kts | 248° |
| 2026-04-23 19:51 | 27.43206 | -142.74380 | 32162 ft | 406 kts | 248° |
| 2026-04-23 19:52 | 27.41281 | -142.79202 | 32160 ft | 406 kts | 248° |
| 2026-04-23 19:52 | 27.38572 | -142.85983 | 32161 ft | 407 kts | 248° |
| 2026-04-23 19:53 | 27.36249 | -142.91786 | 32160 ft | 407 kts | 248° |
| 2026-04-23 19:53 | 27.33917 | -142.97589 | 32161 ft | 407 kts | 248° |
| 2026-04-23 19:54 | 27.31586 | -143.03387 | 32160 ft | 407 kts | 248° |
| 2026-04-23 19:54 | 27.29254 | -143.09182 | 32159 ft | 407 kts | 248° |
| 2026-04-23 19:55 | 27.26916 | -143.14977 | 32162 ft | 407 kts | 248° |
| 2026-04-23 19:55 | 27.24596 | -143.20724 | 32162 ft | 406 kts | 248° |
| 2026-04-23 19:56 | 27.22261 | -143.26498 | 32161 ft | 406 kts | 248° |
| 2026-04-23 19:56 | 27.19922 | -143.32277 | 32159 ft | 406 kts | 248° |
| 2026-04-23 19:57 | 27.17581 | -143.38053 | 32160 ft | 406 kts | 248° |
| 2026-04-23 19:57 | 27.15618 | -143.42890 | 32161 ft | 406 kts | 248° |
| 2026-04-23 19:58 | 27.12893 | -143.49600 | 32160 ft | 406 kts | 248° |
| 2026-04-23 19:58 | 27.10543 | -143.55368 | 32160 ft | 406 kts | 248° |
| 2026-04-23 19:59 | 27.08193 | -143.61132 | 32160 ft | 406 kts | 248° |
| 2026-04-23 19:59 | 27.05841 | -143.66889 | 32159 ft | 405 kts | 248° |
| 2026-04-23 20:00 | 27.03489 | -143.72635 | 32159 ft | 406 kts | 248° |
| 2026-04-23 20:00 | 27.01136 | -143.78384 | 32158 ft | 406 kts | 248° |
| 2026-04-23 20:01 | 26.98779 | -143.84133 | 32159 ft | 406 kts | 248° |
| 2026-04-23 20:01 | 26.96818 | -143.88909 | 32161 ft | 405 kts | 248° |
| 2026-04-23 20:02 | 26.94464 | -143.94639 | 32160 ft | 405 kts | 248° |
| 2026-04-23 20:02 | 26.92106 | -144.00367 | 32159 ft | 405 kts | 248° |
| 2026-04-23 20:03 | 26.89743 | -144.06099 | 32159 ft | 405 kts | 248° |
| 2026-04-23 20:03 | 26.87379 | -144.11831 | 32160 ft | 405 kts | 248° |
| 2026-04-23 20:04 | 26.85010 | -144.17558 | 32159 ft | 406 kts | 248° |
| 2026-04-23 20:04 | 26.82636 | -144.23296 | 32160 ft | 405 kts | 248° |
| 2026-04-23 20:05 | 26.80265 | -144.29017 | 32160 ft | 405 kts | 248° |
| 2026-04-23 20:05 | 26.77890 | -144.34733 | 32159 ft | 405 kts | 248° |
| 2026-04-23 20:06 | 26.75510 | -144.40451 | 32162 ft | 405 kts | 248° |
| 2026-04-23 20:06 | 26.73134 | -144.46166 | 32161 ft | 405 kts | 248° |
| 2026-04-23 20:07 | 26.70752 | -144.51881 | 32160 ft | 405 kts | 248° |
| 2026-04-23 20:07 | 26.68370 | -144.57588 | 32160 ft | 405 kts | 248° |
| 2026-04-23 20:08 | 26.65982 | -144.63301 | 32161 ft | 405 kts | 247° |
| 2026-04-23 20:08 | 26.63594 | -144.69008 | 32162 ft | 405 kts | 247° |
| 2026-04-23 20:09 | 26.61203 | -144.74715 | 32162 ft | 405 kts | 247° |
| 2026-04-23 20:09 | 26.58807 | -144.80416 | 32160 ft | 406 kts | 248° |
| 2026-04-23 20:10 | 26.56411 | -144.86123 | 32160 ft | 406 kts | 247° |
| 2026-04-23 20:10 | 26.54010 | -144.91830 | 32161 ft | 406 kts | 247° |
| 2026-04-23 20:11 | 26.51608 | -144.97527 | 32160 ft | 406 kts | 247° |
| 2026-04-23 20:11 | 26.49203 | -145.03226 | 32159 ft | 406 kts | 247° |
| 2026-04-23 20:12 | 26.46794 | -145.08923 | 32160 ft | 406 kts | 247° |
| 2026-04-23 20:12 | 26.44400 | -145.14578 | 32160 ft | 406 kts | 248° |
| 2026-04-23 20:13 | 26.41987 | -145.20272 | 32162 ft | 406 kts | 247° |
| 2026-04-23 20:13 | 26.39554 | -145.26007 | 32161 ft | 406 kts | 247° |
| 2026-04-23 20:14 | 26.37152 | -145.31660 | 32160 ft | 406 kts | 248° |
| 2026-04-23 20:14 | 26.34734 | -145.37343 | 32161 ft | 406 kts | 247° |
| 2026-04-23 20:15 | 26.32312 | -145.43027 | 32160 ft | 406 kts | 248° |
| 2026-04-23 20:15 | 26.29890 | -145.48706 | 32161 ft | 406 kts | 248° |
| 2026-04-23 20:16 | 26.27464 | -145.54387 | 32160 ft | 406 kts | 248° |
| 2026-04-23 20:16 | 26.25036 | -145.60066 | 32163 ft | 406 kts | 248° |
| 2026-04-23 20:17 | 26.22601 | -145.65739 | 32171 ft | 405 kts | 248° |
| 2026-04-23 20:17 | 26.20173 | -145.71401 | 32171 ft | 405 kts | 248° |
| 2026-04-23 20:18 | 26.17744 | -145.77070 | 32170 ft | 406 kts | 248° |
| 2026-04-23 20:18 | 26.15305 | -145.82739 | 32171 ft | 406 kts | 248° |
| 2026-04-23 20:19 | 26.12863 | -145.88404 | 32170 ft | 406 kts | 248° |
| 2026-04-23 20:19 | 26.10422 | -145.94071 | 32171 ft | 406 kts | 248° |
| 2026-04-23 20:20 | 26.07978 | -145.99731 | 32171 ft | 406 kts | 247° |
| 2026-04-23 20:20 | 26.05529 | -146.05389 | 32171 ft | 406 kts | 248° |
| 2026-04-23 20:21 | 26.03098 | -146.11008 | 32171 ft | 406 kts | 248° |
| 2026-04-23 20:21 | 26.00648 | -146.16661 | 32171 ft | 406 kts | 248° |
| 2026-04-23 20:22 | 25.98201 | -146.22316 | 32170 ft | 406 kts | 247° |
| 2026-04-23 20:22 | 25.95746 | -146.27967 | 32171 ft | 406 kts | 247° |
| 2026-04-23 20:23 | 25.93289 | -146.33624 | 32171 ft | 407 kts | 247° |
| 2026-04-23 20:23 | 25.90828 | -146.39286 | 32169 ft | 407 kts | 247° |
| 2026-04-23 20:24 | 25.88366 | -146.44935 | 32170 ft | 406 kts | 247° |
| 2026-04-23 20:24 | 25.85899 | -146.50596 | 32171 ft | 407 kts | 247° |
| 2026-04-23 20:25 | 25.83422 | -146.56249 | 32170 ft | 408 kts | 247° |
| 2026-04-23 20:25 | 25.80936 | -146.61923 | 32169 ft | 409 kts | 247° |
| 2026-04-23 20:26 | 25.78446 | -146.67590 | 32169 ft | 408 kts | 247° |
| 2026-04-23 20:26 | 25.75960 | -146.73250 | 32170 ft | 408 kts | 247° |
| 2026-04-23 20:27 | 25.73484 | -146.78914 | 32170 ft | 408 kts | 247° |
| 2026-04-23 20:27 | 25.70998 | -146.84585 | 32170 ft | 409 kts | 247° |
| 2026-04-23 20:28 | 25.68504 | -146.90258 | 32170 ft | 410 kts | 247° |
| 2026-04-23 20:28 | 25.65997 | -146.95934 | 32170 ft | 410 kts | 247° |
| 2026-04-23 20:29 | 25.63492 | -147.01606 | 32170 ft | 410 kts | 247° |
| 2026-04-23 20:29 | 25.60986 | -147.07291 | 32171 ft | 411 kts | 247° |
| 2026-04-23 20:30 | 25.58472 | -147.12978 | 32170 ft | 411 kts | 247° |
| 2026-04-23 20:30 | 25.54702 | -147.21465 | 32170 ft | 411 kts | 247° |
| 2026-04-23 20:31 | 25.52169 | -147.27153 | 32169 ft | 412 kts | 247° |
| 2026-04-23 20:31 | 25.49636 | -147.32846 | 32170 ft | 412 kts | 247° |
| 2026-04-23 20:32 | 25.47094 | -147.38545 | 32170 ft | 413 kts | 247° |
| 2026-04-23 20:32 | 25.44562 | -147.44243 | 32170 ft | 412 kts | 247° |
| 2026-04-23 20:33 | 25.42036 | -147.49900 | 32170 ft | 410 kts | 247° |
| 2026-04-23 20:33 | 25.39508 | -147.55558 | 32171 ft | 410 kts | 247° |
| 2026-04-23 20:34 | 25.36977 | -147.61212 | 32170 ft | 410 kts | 247° |
| 2026-04-23 20:34 | 25.34449 | -147.66866 | 32171 ft | 410 kts | 247° |
| 2026-04-23 20:35 | 25.31918 | -147.72518 | 32171 ft | 410 kts | 247° |
| 2026-04-23 20:35 | 25.29372 | -147.78161 | 32171 ft | 410 kts | 247° |
| 2026-04-23 20:36 | 25.26835 | -147.83812 | 32170 ft | 410 kts | 247° |
| 2026-04-23 20:36 | 25.24300 | -147.89459 | 32171 ft | 410 kts | 247° |
| 2026-04-23 20:37 | 25.21766 | -147.95102 | 32170 ft | 410 kts | 247° |
| 2026-04-23 20:37 | 25.19231 | -148.00747 | 32172 ft | 410 kts | 247° |
| 2026-04-23 20:38 | 25.16671 | -148.06401 | 32170 ft | 413 kts | 247° |
| 2026-04-23 20:38 | 25.14121 | -148.12043 | 32170 ft | 413 kts | 247° |
| 2026-04-23 20:39 | 25.11553 | -148.17714 | 32170 ft | 413 kts | 247° |
| 2026-04-23 20:39 | 25.08987 | -148.23389 | 32170 ft | 413 kts | 247° |
| 2026-04-23 20:40 | 25.06405 | -148.29042 | 32169 ft | 413 kts | 247° |
| 2026-04-23 20:40 | 25.03830 | -148.34696 | 32170 ft | 413 kts | 247° |
| 2026-04-23 20:41 | 25.01261 | -148.40370 | 32170 ft | 414 kts | 247° |
| 2026-04-23 20:41 | 24.98685 | -148.46041 | 32168 ft | 414 kts | 246° |
| 2026-04-23 20:42 | 24.96104 | -148.51704 | 32169 ft | 414 kts | 246° |
| 2026-04-23 20:42 | 24.93512 | -148.57370 | 32170 ft | 414 kts | 246° |
| 2026-04-23 20:43 | 24.90923 | -148.63036 | 32169 ft | 414 kts | 247° |
| 2026-04-23 20:43 | 24.88328 | -148.68702 | 32170 ft | 414 kts | 246° |
| 2026-04-23 20:44 | 24.85731 | -148.74364 | 32171 ft | 414 kts | 246° |
| 2026-04-23 20:44 | 24.83125 | -148.80040 | 32171 ft | 415 kts | 246° |
| 2026-04-23 20:45 | 24.80515 | -148.85710 | 32170 ft | 415 kts | 246° |
| 2026-04-23 20:45 | 24.77906 | -148.91381 | 32170 ft | 415 kts | 246° |
| 2026-04-23 20:46 | 24.75293 | -148.97046 | 32170 ft | 415 kts | 246° |
| 2026-04-23 20:46 | 24.72679 | -149.02720 | 32171 ft | 416 kts | 246° |
| 2026-04-23 20:47 | 24.70064 | -149.08380 | 32170 ft | 415 kts | 246° |
| 2026-04-23 20:47 | 24.67442 | -149.14047 | 32170 ft | 415 kts | 246° |
| 2026-04-23 20:48 | 24.64841 | -149.19666 | 32173 ft | 415 kts | 246° |
| 2026-04-23 20:48 | 24.62213 | -149.25328 | 32171 ft | 416 kts | 246° |
| 2026-04-23 20:49 | 24.59589 | -149.30985 | 32170 ft | 416 kts | 246° |
| 2026-04-23 20:49 | 24.56961 | -149.36642 | 32171 ft | 416 kts | 246° |
| 2026-04-23 20:50 | 24.54753 | -149.41376 | 32170 ft | 416 kts | 246° |
| 2026-04-23 20:50 | 24.52137 | -149.46990 | 32170 ft | 416 kts | 246° |
| 2026-04-23 20:51 | 24.49500 | -149.52652 | 32169 ft | 416 kts | 246° |
| 2026-04-23 20:51 | 24.46856 | -149.58304 | 32170 ft | 416 kts | 246° |
| 2026-04-23 20:52 | 24.44209 | -149.63962 | 32171 ft | 417 kts | 246° |
| 2026-04-23 20:52 | 24.41554 | -149.69615 | 32170 ft | 417 kts | 246° |
| 2026-04-23 20:53 | 24.38914 | -149.75274 | 32171 ft | 416 kts | 246° |
| 2026-04-23 20:53 | 24.36266 | -149.80919 | 32169 ft | 417 kts | 246° |
| 2026-04-23 20:54 | 24.33606 | -149.86575 | 32169 ft | 417 kts | 246° |
| 2026-04-23 20:54 | 24.30949 | -149.92232 | 32171 ft | 417 kts | 246° |
| 2026-04-23 20:55 | 24.28285 | -149.97886 | 32172 ft | 418 kts | 246° |
| 2026-04-23 20:55 | 24.25617 | -150.03535 | 32169 ft | 417 kts | 246° |
| 2026-04-23 20:56 | 24.22947 | -150.09187 | 32169 ft | 418 kts | 246° |
| 2026-04-23 20:56 | 24.20276 | -150.14835 | 32170 ft | 417 kts | 246° |
| 2026-04-23 20:57 | 24.17605 | -150.20480 | 32170 ft | 417 kts | 246° |
| 2026-04-23 20:57 | 24.14933 | -150.26130 | 32170 ft | 417 kts | 246° |
| 2026-04-23 20:58 | 24.12274 | -150.31732 | 32170 ft | 418 kts | 246° |
| 2026-04-23 20:58 | 24.09592 | -150.37373 | 32171 ft | 418 kts | 246° |
| 2026-04-23 20:59 | 24.06913 | -150.43014 | 32169 ft | 418 kts | 246° |
| 2026-04-23 20:59 | 24.04227 | -150.48654 | 32169 ft | 418 kts | 246° |
| 2026-04-23 21:00 | 24.01541 | -150.54295 | 32169 ft | 418 kts | 246° |
| 2026-04-23 21:00 | 23.98847 | -150.59929 | 32170 ft | 418 kts | 245° |
| 2026-04-23 21:01 | 23.96149 | -150.65564 | 32169 ft | 418 kts | 245° |
| 2026-04-23 21:01 | 23.93448 | -150.71201 | 32170 ft | 418 kts | 245° |
| 2026-04-23 21:02 | 23.90757 | -150.76835 | 32169 ft | 419 kts | 245° |
| 2026-04-23 21:02 | 23.88060 | -150.82456 | 32163 ft | 414 kts | 245° |
| 2026-04-23 21:03 | 23.85383 | -150.88037 | 32162 ft | 415 kts | 245° |
| 2026-04-23 21:03 | 23.82699 | -150.93615 | 32162 ft | 415 kts | 245° |
| 2026-04-23 21:04 | 23.80016 | -150.99198 | 32160 ft | 415 kts | 245° |
| 2026-04-23 21:04 | 23.77324 | -151.04785 | 32160 ft | 416 kts | 245° |
| 2026-04-23 21:05 | 23.74627 | -151.10379 | 32161 ft | 417 kts | 245° |
| 2026-04-23 21:05 | 23.71941 | -151.15933 | 32162 ft | 417 kts | 245° |
| 2026-04-23 21:06 | 23.69240 | -151.21525 | 32159 ft | 417 kts | 245° |
| 2026-04-23 21:06 | 23.66528 | -151.27114 | 32160 ft | 417 kts | 245° |
| 2026-04-23 21:07 | 23.63827 | -151.32706 | 32160 ft | 417 kts | 245° |
| 2026-04-23 21:07 | 23.61118 | -151.38297 | 32160 ft | 417 kts | 245° |
| 2026-04-23 21:08 | 23.58402 | -151.43891 | 32160 ft | 417 kts | 245° |
| 2026-04-23 21:08 | 23.55682 | -151.49472 | 32159 ft | 417 kts | 245° |
| 2026-04-23 21:09 | 23.52963 | -151.55050 | 32163 ft | 417 kts | 245° |
| 2026-04-23 21:09 | 23.50240 | -151.60630 | 32160 ft | 417 kts | 245° |
| 2026-04-23 21:10 | 23.47518 | -151.66217 | 32160 ft | 417 kts | 245° |
| 2026-04-23 21:10 | 23.44792 | -151.71801 | 32161 ft | 417 kts | 245° |
| 2026-04-23 21:11 | 23.42067 | -151.77380 | 32160 ft | 417 kts | 245° |
| 2026-04-23 21:11 | 23.39338 | -151.82956 | 32160 ft | 417 kts | 245° |
| 2026-04-23 21:12 | 23.36604 | -151.88531 | 32158 ft | 417 kts | 245° |
| 2026-04-23 21:12 | 23.33871 | -151.94105 | 32161 ft | 417 kts | 245° |
| 2026-04-23 21:13 | 23.31136 | -151.99682 | 32160 ft | 418 kts | 245° |
| 2026-04-23 21:13 | 23.28386 | -152.05261 | 32160 ft | 419 kts | 245° |
| 2026-04-23 21:14 | 23.25616 | -152.10839 | 32160 ft | 420 kts | 245° |
| 2026-04-23 21:14 | 23.22848 | -152.16436 | 32160 ft | 420 kts | 245° |
| 2026-04-23 21:15 | 23.20085 | -152.22027 | 32159 ft | 420 kts | 245° |
| 2026-04-23 21:15 | 23.17324 | -152.27620 | 32160 ft | 420 kts | 245° |
| 2026-04-23 21:16 | 23.14553 | -152.33208 | 32160 ft | 420 kts | 245° |
| 2026-04-23 21:16 | 23.11793 | -152.38811 | 32162 ft | 421 kts | 245° |
| 2026-04-23 21:17 | 23.09028 | -152.44411 | 32160 ft | 421 kts | 245° |
| 2026-04-23 21:17 | 23.06251 | -152.50021 | 32159 ft | 422 kts | 245° |
| 2026-04-23 21:18 | 23.03477 | -152.55577 | 32159 ft | 421 kts | 244° |
| 2026-04-23 21:18 | 23.00687 | -152.61172 | 32158 ft | 420 kts | 244° |
| 2026-04-23 21:19 | 22.97886 | -152.66735 | 32160 ft | 421 kts | 244° |
| 2026-04-23 21:19 | 22.95085 | -152.72313 | 32160 ft | 421 kts | 244° |
| 2026-04-23 21:20 | 22.92303 | -152.77892 | 32160 ft | 421 kts | 244° |
| 2026-04-23 21:20 | 22.89505 | -152.83468 | 32161 ft | 421 kts | 244° |
| 2026-04-23 21:21 | 22.86699 | -152.89035 | 32160 ft | 421 kts | 244° |
| 2026-04-23 21:21 | 22.83898 | -152.94612 | 32159 ft | 421 kts | 244° |
| 2026-04-23 21:22 | 22.81083 | -153.00192 | 32161 ft | 422 kts | 244° |
| 2026-04-23 21:22 | 22.78263 | -153.05772 | 32161 ft | 422 kts | 244° |
| 2026-04-23 21:23 | 22.75440 | -153.11347 | 32160 ft | 422 kts | 244° |
| 2026-04-23 21:23 | 22.72610 | -153.16933 | 32158 ft | 423 kts | 244° |
| 2026-04-23 21:24 | 22.69777 | -153.22520 | 32160 ft | 423 kts | 244° |
| 2026-04-23 21:24 | 22.66946 | -153.28111 | 32160 ft | 423 kts | 244° |
| 2026-04-23 21:25 | 22.64111 | -153.33695 | 32161 ft | 424 kts | 244° |
| 2026-04-23 21:25 | 22.61264 | -153.39281 | 32160 ft | 424 kts | 244° |
| 2026-04-23 21:26 | 22.58423 | -153.44866 | 32161 ft | 424 kts | 244° |
| 2026-04-23 21:26 | 22.55587 | -153.50414 | 32161 ft | 425 kts | 244° |
| 2026-04-23 21:27 | 22.52736 | -153.56014 | 32161 ft | 425 kts | 244° |
| 2026-04-23 21:27 | 22.49882 | -153.61619 | 32161 ft | 425 kts | 244° |
| 2026-04-23 21:28 | 22.47014 | -153.67214 | 32161 ft | 426 kts | 244° |
| 2026-04-23 21:28 | 22.44148 | -153.72817 | 32162 ft | 426 kts | 244° |
| 2026-04-23 21:29 | 22.41270 | -153.78422 | 32161 ft | 426 kts | 244° |
| 2026-04-23 21:29 | 22.38394 | -153.84029 | 32160 ft | 427 kts | 244° |
| 2026-04-23 21:30 | 22.35968 | -153.89825 | 32157 ft | 422 kts | 257° |
| 2026-04-23 21:30 | 22.34680 | -153.96006 | 32160 ft | 422 kts | 260° |
| 2026-04-23 21:31 | 22.33467 | -154.02201 | 32159 ft | 422 kts | 260° |
| 2026-04-23 21:31 | 22.32253 | -154.08397 | 32159 ft | 422 kts | 260° |
| 2026-04-23 21:32 | 22.31011 | -154.14594 | 32162 ft | 422 kts | 260° |
| 2026-04-23 21:32 | 22.29760 | -154.20777 | 32160 ft | 421 kts | 259° |
| 2026-04-23 21:33 | 22.28513 | -154.26960 | 32160 ft | 421 kts | 259° |
| 2026-04-23 21:33 | 22.27259 | -154.33136 | 32160 ft | 421 kts | 260° |
| 2026-04-23 21:34 | 22.26014 | -154.39310 | 32161 ft | 421 kts | 260° |
| 2026-04-23 21:34 | 22.24769 | -154.45492 | 32159 ft | 422 kts | 259° |
| 2026-04-23 21:35 | 22.23508 | -154.51671 | 32161 ft | 421 kts | 259° |
| 2026-04-23 21:35 | 22.22241 | -154.57850 | 32160 ft | 422 kts | 260° |
| 2026-04-23 21:36 | 22.20346 | -154.67118 | 32160 ft | 422 kts | 259° |
| 2026-04-23 21:37 | 22.19296 | -154.72249 | 32159 ft | 422 kts | 259° |
| 2026-04-23 21:37 | 22.18033 | -154.78432 | 32159 ft | 422 kts | 259° |
| 2026-04-23 21:38 | 22.16550 | -154.85609 | 32159 ft | 422 kts | 259° |
| 2026-04-23 21:38 | 22.15481 | -154.90781 | 32159 ft | 422 kts | 260° |
| 2026-04-23 21:39 | 22.14212 | -154.96960 | 32159 ft | 422 kts | 259° |
| 2026-04-23 21:39 | 22.12936 | -155.03131 | 32160 ft | 422 kts | 259° |
| 2026-04-23 21:40 | 22.11657 | -155.09266 | 32161 ft | 422 kts | 259° |
| 2026-04-23 21:40 | 22.10363 | -155.15482 | 32160 ft | 422 kts | 260° |
| 2026-04-23 21:41 | 22.09090 | -155.21619 | 32160 ft | 422 kts | 259° |
| 2026-04-23 21:41 | 22.07803 | -155.27797 | 32160 ft | 423 kts | 259° |
| 2026-04-23 21:42 | 22.06508 | -155.33978 | 32160 ft | 423 kts | 260° |
| 2026-04-23 21:42 | 22.05220 | -155.40160 | 32160 ft | 423 kts | 259° |
| 2026-04-23 21:43 | 22.03924 | -155.46347 | 32161 ft | 423 kts | 260° |
| 2026-04-23 21:43 | 22.02631 | -155.52533 | 32160 ft | 423 kts | 259° |
| 2026-04-23 21:44 | 22.01325 | -155.58708 | 32170 ft | 422 kts | 259° |
| 2026-04-23 21:44 | 22.00017 | -155.64872 | 32227 ft | 422 kts | 259° |
| 2026-04-23 21:45 | 21.98707 | -155.71053 | 32235 ft | 423 kts | 260° |
| 2026-04-23 21:45 | 21.97407 | -155.77239 | 32230 ft | 423 kts | 259° |
| 2026-04-23 21:46 | 21.96081 | -155.83417 | 32229 ft | 423 kts | 259° |
| 2026-04-23 21:46 | 21.94753 | -155.89595 | 32230 ft | 423 kts | 259° |
| 2026-04-23 21:47 | 21.93447 | -155.95782 | 32225 ft | 423 kts | 259° |
| 2026-04-23 21:47 | 21.92130 | -156.01958 | 32222 ft | 424 kts | 259° |
| 2026-04-23 21:48 | 21.90802 | -156.08144 | 32216 ft | 424 kts | 259° |
| 2026-04-23 21:48 | 21.89478 | -156.14331 | 32171 ft | 424 kts | 259° |
| 2026-04-23 21:49 | 21.88160 | -156.20524 | 32163 ft | 424 kts | 259° |
| 2026-04-23 21:49 | 21.86833 | -156.26706 | 32161 ft | 424 kts | 259° |
| 2026-04-23 21:50 | 21.85502 | -156.32897 | 32160 ft | 424 kts | 259° |
| 2026-04-23 21:50 | 21.84169 | -156.39093 | 32160 ft | 425 kts | 259° |
| 2026-04-23 21:51 | 21.82847 | -156.45243 | 32162 ft | 425 kts | 259° |
| 2026-04-23 21:51 | 21.81503 | -156.51452 | 32170 ft | 426 kts | 259° |
| 2026-04-23 21:52 | 21.80161 | -156.57640 | 31819 ft | 422 kts | 259° |
| 2026-04-23 21:52 | 21.79501 | -156.60720 | 31512 ft | 423 kts | 259° |
| 2026-04-23 21:52 | 21.78842 | -156.63813 | 31247 ft | 425 kts | 259° |
| 2026-04-23 21:52 | 21.78173 | -156.66910 | 30995 ft | 425 kts | 259° |
| 2026-04-23 21:53 | 21.77498 | -156.70004 | 30745 ft | 425 kts | 259° |
| 2026-04-23 21:53 | 21.76822 | -156.73088 | 30495 ft | 423 kts | 259° |
| 2026-04-23 21:53 | 21.76146 | -156.76169 | 30244 ft | 422 kts | 259° |
| 2026-04-23 21:53 | 21.75476 | -156.79234 | 29963 ft | 421 kts | 259° |
| 2026-04-23 21:54 | 21.74806 | -156.82281 | 29415 ft | 417 kts | 259° |
| 2026-04-23 21:54 | 21.74139 | -156.85310 | 28780 ft | 415 kts | 259° |
| 2026-04-23 21:54 | 21.73478 | -156.88324 | 28131 ft | 414 kts | 259° |
| 2026-04-23 21:54 | 21.72822 | -156.91325 | 27495 ft | 412 kts | 259° |
| 2026-04-23 21:55 | 21.72166 | -156.94324 | 26832 ft | 411 kts | 259° |
| 2026-04-23 21:55 | 21.71518 | -156.97315 | 26179 ft | 410 kts | 258° |
| 2026-04-23 21:55 | 21.70868 | -157.00295 | 25549 ft | 408 kts | 258° |
| 2026-04-23 21:55 | 21.70218 | -157.03265 | 24905 ft | 407 kts | 258° |
| 2026-04-23 21:56 | 21.69579 | -157.06184 | 24252 ft | 407 kts | 258° |
| 2026-04-23 21:56 | 21.68925 | -157.09139 | 23609 ft | 406 kts | 258° |
| 2026-04-23 21:56 | 21.68272 | -157.12085 | 22982 ft | 404 kts | 258° |
| 2026-04-23 21:56 | 21.67625 | -157.15020 | 22356 ft | 403 kts | 258° |
| 2026-04-23 21:57 | 21.66884 | -157.17918 | 21726 ft | 402 kts | 250° |
| 2026-04-23 21:57 | 21.65529 | -157.20502 | 21215 ft | 393 kts | 234° |
| 2026-04-23 21:57 | 21.63820 | -157.22735 | 20840 ft | 381 kts | 231° |
| 2026-04-23 21:57 | 21.62112 | -157.24860 | 20468 ft | 372 kts | 231° |
| 2026-04-23 21:58 | 21.60436 | -157.26961 | 19951 ft | 369 kts | 232° |
| 2026-04-23 21:58 | 21.58782 | -157.29058 | 19409 ft | 366 kts | 232° |
| 2026-04-23 21:58 | 21.57149 | -157.31140 | 18868 ft | 363 kts | 232° |
| 2026-04-23 21:58 | 21.55531 | -157.33213 | 18327 ft | 361 kts | 232° |
| 2026-04-23 21:59 | 21.53925 | -157.35274 | 17798 ft | 358 kts | 232° |
| 2026-04-23 21:59 | 21.52330 | -157.37317 | 17274 ft | 356 kts | 232° |
| 2026-04-23 21:59 | 21.50749 | -157.39345 | 16757 ft | 353 kts | 232° |
| 2026-04-23 22:00 | 21.47619 | -157.43355 | 15725 ft | 348 kts | 232° |
| 2026-04-23 22:00 | 21.46067 | -157.45342 | 15222 ft | 346 kts | 232° |
| 2026-04-23 22:00 | 21.44527 | -157.47310 | 14743 ft | 343 kts | 232° |
| 2026-04-23 22:00 | 21.42997 | -157.49266 | 14351 ft | 341 kts | 232° |
| 2026-04-23 22:01 | 21.41565 | -157.51284 | 14047 ft | 338 kts | 242° |
| 2026-04-23 22:01 | 21.40588 | -157.53546 | 13739 ft | 330 kts | 250° |
| 2026-04-23 22:01 | 21.39755 | -157.55788 | 13531 ft | 317 kts | 251° |
| 2026-04-23 22:01 | 21.38953 | -157.57955 | 13254 ft | 309 kts | 250° |
| 2026-04-23 22:02 | 21.38156 | -157.60078 | 12839 ft | 305 kts | 250° |
| 2026-04-23 22:02 | 21.37362 | -157.62183 | 12384 ft | 303 kts | 250° |
| 2026-04-23 22:02 | 21.36568 | -157.64276 | 11926 ft | 302 kts | 250° |
| 2026-04-23 22:02 | 21.35778 | -157.66356 | 11473 ft | 300 kts | 250° |
| 2026-04-23 22:03 | 21.34991 | -157.68422 | 11019 ft | 298 kts | 249° |
| 2026-04-23 22:03 | 21.34208 | -157.70478 | 10576 ft | 298 kts | 249° |
| 2026-04-23 22:03 | 21.33425 | -157.72531 | 10179 ft | 297 kts | 249° |
| 2026-04-23 22:03 | 21.32644 | -157.74580 | 9810 ft | 296 kts | 248° |
| 2026-04-23 22:04 | 21.31861 | -157.76616 | 9434 ft | 295 kts | 248° |
| 2026-04-23 22:04 | 21.31090 | -157.78617 | 9058 ft | 294 kts | 248° |
| 2026-04-23 22:04 | 21.30313 | -157.80640 | 8677 ft | 293 kts | 248° |
| 2026-04-23 22:04 | 21.29532 | -157.82676 | 8334 ft | 288 kts | 247° |
| 2026-04-23 22:05 | 21.28789 | -157.84603 | 8143 ft | 278 kts | 247° |
| 2026-04-23 22:05 | 21.27889 | -157.86370 | 8106 ft | 267 kts | 231° |
| 2026-04-23 22:05 | 21.26655 | -157.87858 | 8101 ft | 267 kts | 226° |
| 2026-04-23 22:05 | 21.25390 | -157.89285 | 7900 ft | 259 kts | 226° |
| 2026-04-23 22:06 | 21.24174 | -157.90659 | 7661 ft | 249 kts | 226° |
| 2026-04-23 22:06 | 21.22998 | -157.91993 | 7407 ft | 242 kts | 226° |
| 2026-04-23 22:06 | 21.21854 | -157.93304 | 7240 ft | 241 kts | 229° |
| 2026-04-23 22:06 | 21.20832 | -157.94710 | 7104 ft | 236 kts | 233° |
| 2026-04-23 22:07 | 21.19865 | -157.96127 | 6691 ft | 237 kts | 233° |
| 2026-04-23 22:07 | 21.18883 | -157.97552 | 6385 ft | 237 kts | 233° |
| 2026-04-23 22:07 | 21.17895 | -157.98968 | 6117 ft | 237 kts | 233° |
| 2026-04-23 22:07 | 21.16906 | -158.00378 | 5876 ft | 237 kts | 233° |
| 2026-04-23 22:08 | 21.15918 | -158.01782 | 5636 ft | 236 kts | 232° |
| 2026-04-23 22:08 | 21.14929 | -158.03184 | 5390 ft | 235 kts | 232° |
| 2026-04-23 22:08 | 21.13942 | -158.04580 | 5141 ft | 235 kts | 232° |
| 2026-04-23 22:08 | 21.12960 | -158.05978 | 4839 ft | 234 kts | 235° |
| 2026-04-23 22:09 | 21.12286 | -158.07551 | 4469 ft | 234 kts | 263° |
| 2026-04-23 22:09 | 21.12491 | -158.09243 | 4194 ft | 231 kts | 298° |
| 2026-04-23 22:09 | 21.13482 | -158.10528 | 3939 ft | 219 kts | 325° |
| 2026-04-23 22:09 | 21.14727 | -158.11438 | 3690 ft | 215 kts | 332° |
| 2026-04-23 22:10 | 21.16102 | -158.11999 | 3436 ft | 210 kts | 356° |
| 2026-04-23 22:10 | 21.17521 | -158.11829 | 3187 ft | 205 kts | 24° |
| 2026-04-23 22:10 | 21.18668 | -158.10980 | 3006 ft | 201 kts | 51° |
| 2026-04-23 22:10 | 21.19527 | -158.09798 | 2974 ft | 199 kts | 54° |
| 2026-04-23 22:11 | 21.20291 | -158.08671 | 3014 ft | 179 kts | 54° |
| 2026-04-23 22:11 | 21.21022 | -158.07592 | 3010 ft | 179 kts | 54° |
| 2026-04-23 22:11 | 21.21738 | -158.06500 | 2997 ft | 179 kts | 57° |
| 2026-04-23 22:11 | 21.22468 | -158.05423 | 2873 ft | 179 kts | 54° |
| 2026-04-23 22:12 | 21.23219 | -158.04345 | 2710 ft | 181 kts | 54° |
| 2026-04-23 22:12 | 21.23986 | -158.03257 | 2495 ft | 183 kts | 54° |
| 2026-04-23 22:12 | 21.24741 | -158.02172 | 2251 ft | 179 kts | 55° |
| 2026-04-23 22:12 | 21.25490 | -158.01119 | 1983 ft | 177 kts | 54° |
| 2026-04-23 22:13 | 21.26206 | -158.00108 | 1790 ft | 163 kts | 55° |
| 2026-04-23 22:13 | 21.26857 | -157.99173 | 1572 ft | 149 kts | 55° |
| 2026-04-23 22:13 | 21.27445 | -157.98332 | 1313 ft | 135 kts | 53° |
| 2026-04-23 22:13 | 21.28001 | -157.97531 | 1135 ft | 134 kts | 53° |
| 2026-04-23 22:14 | 21.28561 | -157.96738 | 978 ft | 134 kts | 52° |
| 2026-04-23 22:14 | 21.29128 | -157.95942 | 802 ft | 134 kts | 52° |
| 2026-04-23 22:14 | 21.29694 | -157.95138 | 622 ft | 136 kts | 53° |
| 2026-04-23 22:14 | 21.30253 | -157.94336 | 423 ft | 135 kts | 52° |
| 2026-04-23 22:15 | 21.30844 | -157.93510 | 257 ft | 144 kts | 53° |
| 2026-04-23 22:15 | 21.31430 | -157.92664 | 96 ft | 136 kts | 53° |
| 2026-04-23 22:15 | 21.31976 | -157.91892 | 32 ft | 121 kts | 52° |
| 2026-04-23 22:15 | 21.32528 | -157.91117 | 250 ft | 153 kts | 53° |
| 2026-04-23 22:16 | 21.33080 | -157.90077 | 1318 ft | 171 kts | 73° |
| 2026-04-23 22:16 | 21.32992 | -157.88781 | 1974 ft | 189 kts | 110° |
| 2026-04-23 22:16 | 21.32021 | -157.87683 | 2255 ft | 225 kts | 148° |
| 2026-04-23 22:16 | 21.30475 | -157.87054 | 2745 ft | 248 kts | 159° |
| 2026-04-23 22:17 | 21.28828 | -157.86481 | 3716 ft | 251 kts | 159° |
| 2026-04-23 22:17 | 21.27132 | -157.85876 | 4435 ft | 266 kts | 159° |
| 2026-04-23 22:17 | 21.25416 | -157.85250 | 4816 ft | 252 kts | 159° |
| 2026-04-23 22:17 | 21.23743 | -157.84709 | 4944 ft | 252 kts | 171° |
| 2026-04-23 22:18 | 21.22001 | -157.84866 | 4977 ft | 255 kts | 198° |
| 2026-04-23 22:18 | 21.20496 | -157.85859 | 4985 ft | 257 kts | 224° |
| 2026-04-23 22:18 | 21.19389 | -157.87357 | 4985 ft | 258 kts | 241° |
| 2026-04-23 22:18 | 21.18646 | -157.89107 | 4987 ft | 258 kts | 248° |
| 2026-04-23 22:19 | 21.17972 | -157.90888 | 4984 ft | 259 kts | 248° |
| 2026-04-23 22:19 | 21.17293 | -157.92672 | 4981 ft | 258 kts | 248° |
| 2026-04-23 22:19 | 21.16613 | -157.94450 | 4980 ft | 258 kts | 248° |
| 2026-04-23 22:19 | 21.15933 | -157.96226 | 4980 ft | 258 kts | 248° |
| 2026-04-23 22:20 | 21.15253 | -157.97997 | 4983 ft | 253 kts | 248° |
| 2026-04-23 22:20 | 21.14587 | -157.99722 | 4837 ft | 248 kts | 248° |
| 2026-04-23 22:20 | 21.13938 | -158.01400 | 4566 ft | 241 kts | 248° |
| 2026-04-23 22:20 | 21.13304 | -158.03036 | 4267 ft | 235 kts | 248° |
| 2026-04-23 22:21 | 21.12782 | -158.04684 | 3964 ft | 233 kts | 265° |
| 2026-04-23 22:21 | 21.12980 | -158.06375 | 3677 ft | 230 kts | 296° |
| 2026-04-23 22:21 | 21.13926 | -158.07711 | 3414 ft | 225 kts | 327° |
| 2026-04-23 22:21 | 21.15321 | -158.08393 | 3166 ft | 220 kts | 347° |
| 2026-04-23 22:22 | 21.16810 | -158.08679 | 2900 ft | 213 kts | 7° |
| 2026-04-23 22:22 | 21.18185 | -158.08373 | 2733 ft | 194 kts | 19° |
| 2026-04-23 22:22 | 21.19445 | -158.07975 | 2508 ft | 184 kts | 19° |
| 2026-04-23 22:22 | 21.20654 | -158.07532 | 2255 ft | 182 kts | 32° |
| 2026-04-23 22:23 | 21.21613 | -158.06657 | 2029 ft | 182 kts | 50° |
| 2026-04-23 22:23 | 21.22369 | -158.05579 | 1961 ft | 181 kts | 57° |
| 2026-04-23 22:23 | 21.23120 | -158.04490 | 1971 ft | 182 kts | 55° |
| 2026-04-23 22:23 | 21.23877 | -158.03408 | 1977 ft | 181 kts | 55° |
| 2026-04-23 22:24 | 21.24635 | -158.02328 | 1985 ft | 181 kts | 55° |
| 2026-04-23 22:24 | 21.25370 | -158.01283 | 1936 ft | 166 kts | 55° |
| 2026-04-23 22:24 | 21.26038 | -158.00333 | 1784 ft | 153 kts | 55° |
| 2026-04-23 22:24 | 21.26439 | -157.99764 | 1656 ft | 139 kts | 56° |
| 2026-04-23 22:25 | 21.27211 | -157.98666 | 1409 ft | 135 kts | 54° |
| 2026-04-23 22:25 | 21.27578 | -157.98131 | 1273 ft | 134 kts | 53° |
| 2026-04-23 22:25 | 21.28141 | -157.97330 | 1100 ft | 135 kts | 53° |
| 2026-04-23 22:25 | 21.28711 | -157.96523 | 922 ft | 136 kts | 52° |
| 2026-04-23 22:26 | 21.29285 | -157.95711 | 740 ft | 137 kts | 53° |
| 2026-04-23 22:26 | 21.30047 | -157.94629 | 488 ft | 137 kts | 52° |
| 2026-04-23 22:26 | 21.30628 | -157.93809 | 315 ft | 143 kts | 52° |
| 2026-04-23 22:26 | 21.31037 | -157.93227 | 211 ft | 144 kts | 53° |
| 2026-04-23 22:27 | 21.31625 | -157.92386 | 40 ft | 136 kts | 53° |
| 2026-04-23 22:27 | 21.32123 | -157.91683 | 29 ft | 84 kts | 52° |
| 2026-04-23 22:27 | 21.32311 | -157.91420 | 29 ft | 23 kts | 47° |
| 2026-04-23 22:27 | 21.32408 | -157.91368 | 29 ft | 15 kts | 13° |
| 2026-04-23 22:28 | 21.32504 | -157.91342 | 29 ft | 15 kts | 14° |
| 2026-04-23 22:28 | 21.32612 | -157.91322 | 29 ft | 16 kts | 7° |
| 2026-04-23 22:28 | 21.32724 | -157.91305 | 29 ft | 14 kts | 8° |
| 2026-04-23 22:28 | 21.32774 | -157.91345 | 29 ft | 11 kts | 272° |
| 2026-04-23 22:29 | 21.32773 | -157.91437 | 29 ft | 13 kts | 270° |
| 2026-04-23 22:29 | 21.32773 | -157.91543 | 29 ft | 15 kts | 270° |
| 2026-04-23 22:29 | 21.32773 | -157.91662 | 29 ft | 17 kts | 270° |
| 2026-04-23 22:29 | 21.32774 | -157.91794 | 29 ft | 18 kts | 270° |
| 2026-04-23 22:30 | 21.32774 | -157.91937 | 29 ft | 20 kts | 270° |
| 2026-04-23 22:30 | 21.32774 | -157.92091 | 29 ft | 21 kts | 270° |
| 2026-04-23 22:30 | 21.32774 | -157.92256 | 30 ft | 23 kts | 270° |
| 2026-04-23 22:30 | 21.32774 | -157.92431 | 30 ft | 24 kts | 270° |
| 2026-04-23 22:31 | 21.32774 | -157.92602 | 30 ft | 19 kts | 270° |
| 2026-04-23 22:31 | 21.32769 | -157.92726 | 30 ft | 14 kts | 255° |
| 2026-04-23 22:31 | 21.32770 | -157.92798 | 30 ft | 9 kts | 317° |
| 2026-04-23 22:31 | 21.32839 | -157.92809 | 30 ft | 11 kts | 1° |
| 2026-04-23 22:32 | 21.32917 | -157.92780 | 30 ft | 13 kts | 43° |
| 2026-04-23 22:32 | 21.32987 | -157.92704 | 29 ft | 15 kts | 45° |
| 2026-04-23 22:32 | 21.33066 | -157.92622 | 29 ft | 17 kts | 36° |
| 2026-04-23 22:32 | 21.33177 | -157.92567 | 29 ft | 18 kts | 9° |
| 2026-04-23 22:33 | 21.33298 | -157.92549 | 29 ft | 15 kts | 7° |
| 2026-04-23 22:33 | 21.33410 | -157.92533 | 29 ft | 17 kts | 8° |
| 2026-04-23 22:33 | 21.33509 | -157.92543 | 29 ft | 14 kts | 327° |
| 2026-04-23 22:33 | 21.33601 | -157.92598 | 29 ft | 16 kts | 352° |
| 2026-04-23 22:34 | 21.33715 | -157.92581 | 29 ft | 17 kts | 28° |
| 2026-04-23 22:34 | 21.33762 | -157.92502 | 29 ft | 9 kts | 87° |
| 2026-04-23 22:34 | 21.33754 | -157.92449 | 29 ft | 8 kts | 120° |
| 2026-04-23 22:34 | 21.33719 | -157.92436 | 29 ft | 4 kts | 182° |
| 2026-04-23 22:35 | 21.33699 | -157.92437 | 29 ft | 2 kts | 182° |
| 2026-04-23 22:35 | 21.33697 | -157.92437 | 29 ft | 0 kts | 182° |